Terminal Aerodrome Forecast
Issued by NWS

Home | Current Version | Previous Version | Text Only | Print | Product List | Glossary On
Versions: 1 2 3 4 5 6 7 8 9 10 11 12 13
672
FTUS42 KGSP 201737
TAFAND
TAF
KAND 201737Z 2018/2118 25005KT P6SM FEW050
     FM202300 VRB03KT P6SM FEW060 SCT200
     FM211400 06004KT P6SM FEW040=

USA.gov is the U.S. government's official web portal to all federal, state and local government web resources and services.